createdAt,value
2018-07-23T00:00:23.318Z,77.90
2018-07-23T00:02:51.752Z,77.80
2018-07-23T00:05:20.405Z,77.70
2018-07-23T00:07:49.094Z,77.50
2018-07-23T00:10:17.557Z,78.10
2018-07-23T00:12:46.013Z,77.30
2018-07-23T00:15:17.709Z,77.60
2018-07-23T00:17:46.174Z,78.00
2018-07-23T00:20:14.638Z,78.40
2018-07-23T00:22:43.105Z,78.80
2018-07-23T00:25:11.660Z,78.70
2018-07-23T00:27:40.217Z,78.70
2018-07-23T00:30:08.701Z,78.80
2018-07-23T00:35:05.861Z,79.10
2018-07-23T00:37:34.501Z,79.20
2018-07-23T00:40:04.929Z,79.20
2018-07-23T00:42:33.369Z,79.60
2018-07-23T00:45:01.966Z,79.80
2018-07-23T00:49:58.539Z,80.30
2018-07-23T00:52:27.272Z,80.40
2018-07-23T00:54:55.694Z,80.80
2018-07-23T00:57:24.133Z,80.80
2018-07-23T00:59:52.642Z,81.30
2018-07-23T01:02:21.117Z,81.90
2018-07-23T01:04:49.559Z,81.50
2018-07-23T01:07:18.108Z,79.60
2018-07-23T01:09:46.588Z,77.80
2018-07-23T01:12:26.446Z,77.90
2018-07-23T01:14:54.901Z,79.20
2018-07-23T01:17:24.229Z,79.30
2018-07-23T01:19:55.290Z,80.60
2018-07-23T01:22:24.841Z,81.70
2018-07-23T01:24:53.985Z,82.40
2018-07-23T01:27:22.713Z,83.60
2018-07-23T01:29:51.136Z,84.60
2018-07-23T01:32:20.089Z,85.10
2018-07-23T01:34:48.741Z,85.10
2018-07-23T01:37:17.820Z,85.20
2018-07-23T01:39:46.276Z,85.30
2018-07-23T01:42:14.876Z,85.30
2018-07-23T01:44:43.362Z,85.10
2018-07-23T01:47:12.014Z,85.10
2018-07-23T01:49:40.514Z,87.00
2018-07-23T01:52:08.942Z,86.90
2018-07-23T01:54:37.476Z,87.80
2018-07-23T01:57:05.997Z,88.50
2018-07-23T01:59:34.435Z,88.70
2018-07-23T02:02:02.937Z,88.90
2018-07-23T02:04:35.442Z,88.80
2018-07-23T02:07:04.085Z,89.00
2018-07-23T02:09:32.619Z,89.10
2018-07-23T02:12:01.289Z,89.20
2018-07-23T02:14:29.720Z,89.00
2018-07-23T02:16:58.289Z,89.00
2018-07-23T02:19:26.785Z,88.90
2018-07-23T02:21:55.231Z,88.50
2018-07-23T02:24:23.776Z,87.80
2018-07-23T02:26:52.449Z,88.00
2018-07-23T02:29:21.252Z,88.90
2018-07-23T02:31:49.689Z,89.60
2018-07-23T02:34:18.165Z,90.10
2018-07-23T02:36:46.585Z,90.00
2018-07-23T02:39:15.146Z,89.30
2018-07-23T02:41:43.596Z,88.20
2018-07-23T02:44:12.253Z,87.00
2018-07-23T02:46:40.717Z,86.70
2018-07-23T02:49:09.187Z,87.20
2018-07-23T02:51:37.650Z,87.30
2018-07-23T02:54:06.073Z,87.80
2018-07-23T02:56:34.592Z,89.10
2018-07-23T02:59:03.670Z,90.10
2018-07-23T03:01:32.184Z,90.30
2018-07-23T03:04:00.713Z,90.80
2018-07-23T03:06:29.989Z,91.00
2018-07-23T03:08:58.533Z,91.20
2018-07-23T03:11:27.045Z,91.30
2018-07-23T03:13:55.656Z,91.30
2018-07-23T03:16:24.244Z,91.30
2018-07-23T03:18:52.737Z,91.20
2018-07-23T03:21:21.192Z,91.30
2018-07-23T03:23:49.640Z,91.60
2018-07-23T03:26:18.145Z,91.80
2018-07-23T03:28:46.588Z,91.80
2018-07-23T03:31:15.157Z,91.80
2018-07-23T03:33:43.732Z,91.80
2018-07-23T03:36:12.181Z,91.80
2018-07-23T03:38:40.632Z,92.10
2018-07-23T03:41:09.113Z,92.20
2018-07-23T03:43:37.561Z,92.20
2018-07-23T03:46:06.376Z,92.20
2018-07-23T03:48:34.973Z,92.10
2018-07-23T03:51:03.471Z,92.10
2018-07-23T03:53:31.933Z,92.00
2018-07-23T03:56:00.425Z,92.00
2018-07-23T03:58:28.870Z,92.00
2018-07-23T04:00:57.309Z,91.90
2018-07-23T04:03:25.929Z,92.00
2018-07-23T04:08:22.449Z,92.30
2018-07-23T04:10:51.035Z,92.30
2018-07-23T04:13:19.551Z,92.40
2018-07-23T04:15:48.086Z,92.30
2018-07-23T04:18:16.618Z,92.30
2018-07-23T04:20:45.046Z,92.20
2018-07-23T04:23:13.521Z,92.20
2018-07-23T04:25:42.000Z,92.20
2018-07-23T04:28:10.444Z,92.10
2018-07-23T04:30:38.878Z,92.00
2018-07-23T04:33:07.393Z,91.90
2018-07-23T04:35:35.872Z,91.80
2018-07-23T04:40:32.492Z,91.90
2018-07-23T04:43:01.025Z,92.00
2018-07-23T04:45:29.481Z,91.80
2018-07-23T04:47:57.993Z,91.80
2018-07-23T04:50:26.656Z,91.70
2018-07-23T04:52:55.082Z,91.60
2018-07-23T04:55:23.537Z,91.50
2018-07-23T04:57:52.241Z,91.40
2018-07-23T05:00:20.821Z,91.50
2018-07-23T05:02:49.281Z,91.50
2018-07-23T05:05:17.713Z,91.40
2018-07-23T05:07:46.160Z,91.50
2018-07-23T05:10:14.772Z,91.30
2018-07-23T05:12:43.250Z,91.20
2018-07-23T05:15:11.818Z,90.80
2018-07-23T05:17:40.309Z,90.90
2018-07-23T05:20:08.835Z,90.20
2018-07-23T05:22:37.273Z,90.00
2018-07-23T05:25:05.774Z,89.70
2018-07-23T05:27:34.217Z,89.50
2018-07-23T05:30:02.890Z,89.00
2018-07-23T05:32:31.412Z,89.30
2018-07-23T05:34:59.842Z,88.30
2018-07-23T05:37:28.269Z,88.00
2018-07-23T05:39:56.749Z,87.80
2018-07-23T05:42:25.288Z,88.00
2018-07-23T05:44:53.721Z,89.00
2018-07-23T05:47:22.329Z,89.80
2018-07-23T05:49:50.810Z,90.00
2018-07-23T05:52:19.360Z,90.30
2018-07-23T05:54:47.912Z,90.30
2018-07-23T05:57:16.568Z,90.10
2018-07-23T05:59:45.009Z,88.60
2018-07-23T06:02:13.696Z,88.10
2018-07-23T06:04:42.241Z,88.60
2018-07-23T06:07:10.793Z,87.60
2018-07-23T06:09:39.377Z,85.70
2018-07-23T06:12:09.436Z,84.70
2018-07-23T06:14:38.091Z,82.30
2018-07-23T06:17:07.678Z,81.60
2018-07-23T06:19:36.112Z,80.10
2018-07-23T06:22:04.853Z,78.80
2018-07-23T06:24:33.410Z,78.00
2018-07-23T06:27:02.005Z,76.40
2018-07-23T06:29:30.521Z,75.40
2018-07-23T06:31:59.034Z,75.80
2018-07-23T06:34:27.561Z,75.50
2018-07-23T06:36:57.384Z,75.30
2018-07-23T06:42:19.284Z,75.90
2018-07-23T06:44:47.791Z,75.70
2018-07-23T06:47:16.261Z,72.40
2018-07-23T06:49:45.197Z,71.20
2018-07-23T06:52:13.692Z,72.10
2018-07-23T06:54:42.182Z,71.10
2018-07-23T06:57:11.124Z,70.00
2018-07-23T06:59:39.675Z,69.80
2018-07-23T07:02:08.114Z,69.70
2018-07-23T07:04:36.740Z,70.10
2018-07-23T07:07:05.361Z,70.30
2018-07-23T07:09:33.813Z,69.00
2018-07-23T07:12:02.669Z,70.10
2018-07-23T07:14:31.113Z,71.60
2018-07-23T07:16:59.777Z,73.30
2018-07-23T07:19:28.282Z,73.10
2018-07-23T07:21:56.825Z,73.50
2018-07-23T07:24:25.406Z,74.60
2018-07-23T07:26:53.955Z,75.30
2018-07-23T07:29:22.520Z,74.20
2018-07-23T07:31:51.037Z,73.80
2018-07-23T07:34:19.548Z,71.80
2018-07-23T07:36:47.986Z,72.10
2018-07-23T07:39:16.581Z,69.00
2018-07-23T07:41:45.097Z,69.70
2018-07-23T07:44:13.598Z,69.80
2018-07-23T07:46:42.197Z,70.30
2018-07-23T07:49:10.708Z,71.00
2018-07-23T07:51:39.153Z,70.00
2018-07-23T07:54:07.705Z,68.70
2018-07-23T07:56:36.193Z,68.10
2018-07-23T07:59:04.714Z,67.10
2018-07-23T08:01:34.894Z,66.90
2018-07-23T08:04:03.421Z,65.30
2018-07-23T08:06:31.993Z,64.50
2018-07-23T08:09:00.733Z,64.60
2018-07-23T08:11:29.317Z,63.50
2018-07-23T08:13:57.733Z,63.10
2018-07-23T08:16:26.288Z,62.10
2018-07-23T08:18:54.859Z,61.00
2018-07-23T08:21:24.085Z,59.60
2018-07-23T08:23:52.617Z,58.40
2018-07-23T08:26:21.097Z,57.10
2018-07-23T08:28:49.733Z,56.50
2018-07-23T08:31:18.433Z,54.50
2018-07-23T08:33:47.625Z,53.80
2018-07-23T08:36:16.085Z,54.60
2018-07-23T08:38:44.740Z,55.20
2018-07-23T08:41:13.258Z,55.50
2018-07-23T08:43:41.782Z,55.50
2018-07-23T08:46:10.331Z,55.70
2018-07-23T08:48:39.485Z,55.80
2018-07-23T08:51:08.060Z,55.50
2018-07-23T08:53:36.508Z,56.50
2018-07-23T08:56:05.155Z,56.60
2018-07-23T08:58:34.311Z,57.40
2018-07-23T09:01:10.584Z,57.90
2018-07-23T09:03:39.145Z,58.10
2018-07-23T09:06:07.677Z,57.70
2018-07-23T09:08:36.543Z,57.60
2018-07-23T09:11:05.006Z,57.10
2018-07-23T09:13:33.653Z,56.80
2018-07-23T09:16:02.419Z,57.30
2018-07-23T09:18:30.874Z,57.10
2018-07-23T09:20:59.449Z,56.80
2018-07-23T09:23:28.057Z,57.90
2018-07-23T09:25:58.385Z,58.90
2018-07-23T09:28:27.496Z,59.50
2018-07-23T09:30:56.755Z,60.40
2018-07-23T09:33:26.047Z,61.30
2018-07-23T09:35:58.622Z,59.60
2018-07-23T09:38:28.563Z,60.10
2018-07-23T09:40:57.635Z,58.70
2018-07-23T09:44:55.361Z,57.60
2018-07-23T09:49:52.141Z,58.10
2018-07-23T09:52:20.658Z,58.50
2018-07-23T10:01:33.394Z,58.70
2018-07-23T10:04:02.003Z,57.60
2018-07-23T10:06:30.486Z,57.80
2018-07-23T10:08:59.054Z,57.80
2018-07-23T10:11:27.582Z,57.90
2018-07-23T10:13:56.038Z,57.80
2018-07-23T10:16:24.565Z,57.60
2018-07-23T10:18:53.010Z,57.60
2018-07-23T10:21:21.474Z,58.20
2018-07-23T10:23:49.981Z,58.60
2018-07-23T10:26:18.425Z,57.60
2018-07-23T10:28:46.958Z,57.10
2018-07-23T10:31:15.401Z,56.50
2018-07-23T10:33:43.902Z,56.20
2018-07-23T10:36:12.738Z,56.40
2018-07-23T10:38:41.348Z,55.80
2018-07-23T10:41:10.352Z,55.50
2018-07-23T10:43:38.900Z,55.60
2018-07-23T10:46:07.433Z,55.80
2018-07-23T10:48:35.989Z,56.40
2018-07-23T10:51:04.532Z,56.50
2018-07-23T10:53:33.005Z,56.40
2018-07-23T10:56:01.446Z,56.50
2018-07-23T10:58:29.888Z,57.30
2018-07-23T11:00:58.411Z,57.70
2018-07-23T11:03:26.881Z,57.60
2018-07-23T11:05:55.316Z,56.90
2018-07-23T11:08:23.818Z,56.90
2018-07-23T11:10:52.390Z,56.60
2018-07-23T11:13:20.816Z,56.20
2018-07-23T11:15:49.365Z,55.80
2018-07-23T11:18:17.917Z,56.50
2018-07-23T11:27:30.628Z,57.00
2018-07-23T11:29:59.177Z,56.90
2018-07-23T11:32:27.647Z,57.30
2018-07-23T11:34:56.425Z,56.00
2018-07-23T11:37:24.849Z,56.00
2018-07-23T11:39:53.276Z,56.10
2018-07-23T11:42:21.729Z,55.50
2018-07-23T11:44:50.277Z,54.70
2018-07-23T11:47:18.781Z,54.80
2018-07-23T11:49:47.277Z,54.90
2018-07-23T11:52:15.803Z,54.10
2018-07-23T11:54:44.366Z,53.80
2018-07-23T11:57:12.969Z,53.30
2018-07-23T11:59:41.466Z,53.90
2018-07-23T12:02:10.218Z,53.40
2018-07-23T12:04:38.771Z,53.60
2018-07-23T12:07:07.802Z,53.30
2018-07-23T12:09:36.208Z,52.70
2018-07-23T12:12:04.727Z,52.50
2018-07-23T12:14:33.168Z,53.00
2018-07-23T12:17:01.591Z,51.80
2018-07-23T12:19:30.042Z,51.20
2018-07-23T12:21:58.693Z,51.30
2018-07-23T12:24:27.198Z,51.00
2018-07-23T12:26:55.672Z,51.90
2018-07-23T12:31:52.330Z,53.20
2018-07-23T12:34:20.939Z,52.90
2018-07-23T12:36:49.381Z,53.20
2018-07-23T12:39:17.783Z,53.00
2018-07-23T12:41:46.395Z,52.40
2018-07-23T12:44:14.944Z,52.40
2018-07-23T12:46:43.362Z,52.30
2018-07-23T12:49:11.889Z,52.90
2018-07-23T12:51:40.397Z,52.40
2018-07-23T12:54:09.474Z,51.50
2018-07-23T12:56:37.989Z,51.70
2018-07-23T12:59:06.505Z,50.80
2018-07-23T13:01:34.930Z,51.60
2018-07-23T13:04:03.442Z,51.50
2018-07-23T13:06:31.867Z,51.30
2018-07-23T13:09:00.305Z,51.30
2018-07-23T13:11:28.790Z,50.50
2018-07-23T13:13:57.204Z,48.80
2018-07-23T13:16:25.701Z,48.30
2018-07-23T13:18:54.318Z,49.40
2018-07-23T13:21:22.853Z,50.10
2018-07-23T13:23:51.450Z,50.50
2018-07-23T13:26:19.912Z,51.10
2018-07-23T13:28:48.337Z,50.80
2018-07-23T13:31:16.825Z,50.60
2018-07-23T13:33:45.314Z,50.70
2018-07-23T13:36:14.192Z,50.80
2018-07-23T13:38:44.926Z,50.50
2018-07-23T13:41:13.429Z,50.30
2018-07-23T13:43:41.990Z,48.60
2018-07-23T13:46:10.573Z,48.10
2018-07-23T13:48:39.025Z,48.20
2018-07-23T13:51:07.551Z,48.10
2018-07-23T13:53:36.368Z,48.70
2018-07-23T13:56:04.897Z,48.80
2018-07-23T13:58:33.341Z,49.40
2018-07-23T14:01:01.873Z,49.80
2018-07-23T14:03:30.374Z,49.80
2018-07-23T14:05:58.785Z,50.30
2018-07-23T14:08:27.224Z,50.70
2018-07-23T14:10:55.770Z,50.60
2018-07-23T14:13:24.194Z,50.10
2018-07-23T14:15:53.050Z,48.50
2018-07-23T14:18:21.561Z,48.50
2018-07-23T14:20:50.090Z,48.30
2018-07-23T14:23:18.561Z,47.90
2018-07-23T14:25:47.176Z,48.00
2018-07-23T14:30:43.951Z,46.90
2018-07-23T14:33:12.416Z,46.90
2018-07-23T14:35:40.923Z,47.00
2018-07-23T14:38:09.403Z,47.40
2018-07-23T14:40:38.034Z,46.80
2018-07-23T14:43:06.479Z,47.30
2018-07-23T14:45:35.033Z,47.70
2018-07-23T14:48:03.590Z,46.70
2018-07-23T14:50:32.049Z,47.40
2018-07-23T14:53:00.669Z,48.80
2018-07-23T14:55:29.237Z,48.10
2018-07-23T14:57:57.693Z,48.50
2018-07-23T15:00:26.257Z,48.10
2018-07-23T15:02:54.861Z,46.80
2018-07-23T15:05:24.698Z,47.40
2018-07-23T15:07:54.249Z,47.40
2018-07-23T15:12:50.993Z,47.70
2018-07-23T15:15:19.640Z,48.10
2018-07-23T15:17:48.241Z,48.40
2018-07-23T15:20:16.825Z,48.30
2018-07-23T15:22:45.344Z,48.20
2018-07-23T15:25:13.857Z,48.40
2018-07-23T15:27:42.361Z,48.30
2018-07-23T15:30:10.941Z,48.00
2018-07-23T15:32:39.497Z,47.70
2018-07-23T15:35:07.933Z,48.00
2018-07-23T15:37:36.381Z,47.70
2018-07-23T15:40:04.950Z,48.30
2018-07-23T15:42:34.009Z,47.10
2018-07-23T15:45:06.416Z,47.20
2018-07-23T15:47:34.961Z,47.60
2018-07-23T15:50:03.473Z,46.40
2018-07-23T15:52:32.647Z,46.90
2018-07-23T15:55:03.169Z,46.80
2018-07-23T15:57:34.057Z,46.30
2018-07-23T16:00:03.191Z,45.60
2018-07-23T16:02:31.672Z,45.10
2018-07-23T16:05:01.292Z,45.00
2018-07-23T16:07:29.737Z,45.50
2018-07-23T16:09:58.174Z,44.20
2018-07-23T16:12:26.860Z,44.20
2018-07-23T16:14:55.348Z,43.60
2018-07-23T16:20:54.973Z,42.30
2018-07-23T16:23:23.454Z,40.90
2018-07-23T16:25:51.945Z,40.50
2018-07-23T16:28:25.604Z,40.40
2018-07-23T16:30:54.312Z,39.50
2018-07-23T16:33:22.846Z,38.90
2018-07-23T16:35:51.346Z,38.50
2018-07-23T16:38:19.829Z,37.60
2018-07-23T16:40:48.420Z,36.70
2018-07-23T16:43:17.012Z,36.40
2018-07-23T16:45:45.458Z,36.60
2018-07-23T16:48:13.897Z,36.80
2018-07-23T16:50:42.526Z,36.60
2018-07-23T16:53:10.974Z,37.20
2018-07-23T16:55:39.573Z,37.80
2018-07-23T16:58:08.851Z,38.00
2018-07-23T17:00:37.404Z,38.20
2018-07-23T17:03:05.944Z,38.10
2018-07-23T17:05:34.469Z,38.10
2018-07-23T17:08:02.984Z,38.40
2018-07-23T17:10:31.638Z,40.20
2018-07-23T17:13:00.201Z,41.10
2018-07-23T17:15:28.681Z,42.30
2018-07-23T17:17:57.250Z,43.30
2018-07-23T17:20:25.680Z,44.10
2018-07-23T17:22:54.202Z,45.30
2018-07-23T17:25:22.873Z,47.20
2018-07-23T17:27:51.413Z,48.50
2018-07-23T17:30:21.769Z,49.60
2018-07-23T17:35:18.339Z,51.50
2018-07-23T17:37:46.869Z,51.30
2018-07-23T17:40:15.397Z,52.00
2018-07-23T17:42:43.904Z,52.50
2018-07-23T17:45:12.467Z,53.70
2018-07-23T17:47:40.969Z,53.80
2018-07-23T17:50:09.473Z,54.00
2018-07-23T17:52:37.921Z,54.80
2018-07-23T18:01:50.949Z,55.00
2018-07-23T18:04:19.358Z,56.00
2018-07-23T18:06:47.944Z,55.80
2018-07-23T18:09:16.404Z,56.00
2018-07-23T18:11:44.934Z,56.10
2018-07-23T18:14:13.582Z,56.30
2018-07-23T18:16:42.185Z,56.50
2018-07-23T18:19:10.675Z,56.80
2018-07-23T18:21:39.099Z,57.10
2018-07-23T18:24:07.693Z,57.20
2018-07-23T18:26:36.245Z,57.50
2018-07-23T18:29:05.313Z,57.80
2018-07-23T18:31:33.921Z,57.80
2018-07-23T18:34:02.574Z,58.30
2018-07-23T18:36:31.109Z,58.40
2018-07-23T18:38:59.633Z,58.60
2018-07-23T18:41:28.162Z,58.80
2018-07-23T18:43:56.621Z,59.20
2018-07-23T18:46:25.122Z,60.10
2018-07-23T18:49:31.338Z,59.80
2018-07-23T18:51:59.865Z,60.00
2018-07-23T18:54:29.497Z,60.30
2018-07-23T18:56:59.273Z,60.70
2018-07-23T18:59:27.880Z,61.10
2018-07-23T19:01:57.101Z,61.40
2018-07-23T19:04:25.674Z,61.80
2018-07-23T19:06:54.185Z,62.00
2018-07-23T19:09:23.965Z,62.30
2018-07-23T19:11:53.853Z,62.50
2018-07-23T19:14:22.541Z,62.80
2018-07-23T19:16:52.049Z,63.80
2018-07-23T19:19:20.501Z,63.40
2018-07-23T19:21:49.010Z,63.80
2018-07-23T19:24:17.445Z,63.70
2018-07-23T19:26:46.007Z,64.60
2018-07-23T19:29:14.652Z,65.00
2018-07-23T19:31:43.110Z,65.50
2018-07-23T19:34:12.395Z,65.80
2018-07-23T19:36:41.115Z,66.20
2018-07-23T19:39:11.393Z,66.50
2018-07-23T19:41:40.157Z,66.50
2018-07-23T19:44:08.989Z,66.70
2018-07-23T19:46:37.584Z,67.00
2018-07-23T19:49:06.125Z,67.30
2018-07-23T19:51:34.992Z,67.80
2018-07-23T19:54:03.750Z,68.00
2018-07-23T19:56:32.342Z,68.40
2018-07-23T19:59:02.961Z,69.30
2018-07-23T20:01:31.582Z,68.70
2018-07-23T20:04:00.423Z,69.00
2018-07-23T20:06:29.360Z,69.20
2018-07-23T20:08:58.917Z,69.40
2018-07-23T20:11:28.149Z,69.50
2018-07-23T20:13:56.735Z,69.80
2018-07-23T20:16:25.252Z,70.10
2018-07-23T20:18:53.802Z,70.40
2018-07-23T20:21:22.382Z,70.80
2018-07-23T20:23:50.929Z,71.10
2018-07-23T20:26:19.482Z,71.40
2018-07-23T20:28:48.181Z,71.70
2018-07-23T20:31:16.644Z,71.90
2018-07-23T20:33:46.003Z,72.10
2018-07-23T20:36:14.812Z,72.10
2018-07-23T20:38:43.363Z,72.40
2018-07-23T20:41:11.869Z,72.40
2018-07-23T20:43:40.474Z,72.60
2018-07-23T20:46:09.224Z,72.60
2018-07-23T20:51:06.398Z,73.00
2018-07-23T20:53:34.919Z,73.20
2018-07-23T20:56:03.708Z,73.90
2018-07-23T20:58:32.377Z,74.10
2018-07-23T21:03:29.366Z,74.50
2018-07-23T21:05:57.810Z,74.70
2018-07-23T21:08:26.365Z,74.60
2018-07-23T21:10:54.829Z,75.10
2018-07-23T21:13:23.466Z,75.20
2018-07-23T21:15:51.921Z,75.30
2018-07-23T21:18:20.482Z,75.50
2018-07-23T21:20:48.968Z,75.60
2018-07-23T21:23:17.560Z,76.00
2018-07-23T21:25:45.993Z,76.50
2018-07-23T21:28:14.589Z,76.90
2018-07-23T21:30:43.298Z,77.40
2018-07-23T21:33:11.861Z,77.60
2018-07-23T21:35:40.336Z,77.70
2018-07-23T21:41:24.532Z,78.90
2018-07-23T21:43:53.062Z,79.10
2018-07-23T21:46:21.498Z,79.30
2018-07-23T21:48:50.450Z,79.30
2018-07-23T21:51:18.883Z,79.70
2018-07-23T21:53:47.337Z,80.00
2018-07-23T21:56:15.824Z,80.10
2018-07-23T21:58:44.282Z,80.40
2018-07-23T22:01:12.765Z,81.00
2018-07-23T22:03:41.276Z,81.30
2018-07-23T22:06:09.698Z,81.50
2018-07-23T22:08:38.188Z,81.90
2018-07-23T22:11:06.685Z,82.30
2018-07-23T22:13:35.223Z,83.00
2018-07-23T22:16:03.835Z,83.80
2018-07-23T22:18:32.335Z,84.60
2018-07-23T22:21:00.762Z,85.10
2018-07-23T22:23:29.317Z,85.50
2018-07-23T22:25:57.926Z,85.80
2018-07-23T22:28:26.353Z,85.60
2018-07-23T22:30:54.767Z,86.30
2018-07-23T22:33:23.345Z,86.90
2018-07-23T22:35:51.874Z,87.70
2018-07-23T22:38:20.317Z,88.70
2018-07-23T22:40:48.818Z,89.20
2018-07-23T22:43:17.253Z,89.70
2018-07-23T22:45:45.689Z,89.70
2018-07-23T22:48:14.187Z,90.00
2018-07-23T22:50:42.650Z,90.20
2018-07-23T22:53:11.223Z,90.40
2018-07-23T22:55:39.791Z,91.00
2018-07-23T22:58:08.427Z,91.10
2018-07-23T23:00:36.981Z,91.10
2018-07-23T23:03:05.617Z,91.30
2018-07-23T23:05:34.054Z,91.60
2018-07-23T23:08:02.940Z,91.80
2018-07-23T23:10:31.416Z,91.90
2018-07-23T23:12:59.975Z,92.10
2018-07-23T23:15:28.389Z,92.20
2018-07-23T23:17:56.890Z,92.40
2018-07-23T23:20:25.452Z,92.70
2018-07-23T23:22:53.946Z,92.80
2018-07-23T23:25:22.437Z,93.30
2018-07-23T23:27:50.885Z,93.50
2018-07-23T23:30:19.520Z,93.30
2018-07-23T23:32:47.997Z,93.00
2018-07-23T23:35:16.628Z,92.90
2018-07-23T23:37:45.186Z,93.00
2018-07-23T23:40:14.036Z,93.30
2018-07-23T23:42:42.605Z,93.60
2018-07-23T23:45:11.075Z,93.50
2018-07-23T23:47:41.294Z,93.60
2018-07-23T23:50:09.825Z,93.80
2018-07-23T23:52:38.349Z,93.90
2018-07-23T23:55:06.926Z,94.00
2018-07-23T23:57:35.375Z,94.10
